sensor_id;sensor_type;location;lat;lon;timestamp;P1;durP1;ratioP1;P2;durP2;ratioP2
60885;SDS011;46736;41.654;-8.438;2023-10-09T00:00:07;0.20;;;0.20;;
60885;SDS011;46736;41.654;-8.438;2023-10-09T00:02:23;0.20;;;0.20;;
60885;SDS011;46736;41.654;-8.438;2023-10-09T00:04:24;0.30;;;0.30;;
60885;SDS011;46736;41.654;-8.438;2023-10-09T00:06:25;0.20;;;0.20;;
60885;SDS011;46736;41.654;-8.438;2023-10-09T00:10:45;0.20;;;0.20;;
60885;SDS011;46736;41.654;-8.438;2023-10-09T00:12:53;0.40;;;0.40;;
60885;SDS011;46736;41.654;-8.438;2023-10-09T00:14:53;0.30;;;0.30;;
60885;SDS011;46736;41.654;-8.438;2023-10-09T00:16:56;0.32;;;0.32;;
60885;SDS011;46736;41.654;-8.438;2023-10-09T00:19:17;0.40;;;0.40;;
60885;SDS011;46736;41.654;-8.438;2023-10-09T00:23:40;0.20;;;0.20;;
60885;SDS011;46736;41.654;-8.438;2023-10-09T00:25:49;0.10;;;0.10;;
60885;SDS011;46736;41.654;-8.438;2023-10-09T00:28:05;0.20;;;0.20;;
60885;SDS011;46736;41.654;-8.438;2023-10-09T00:30:06;0.20;;;0.20;;
60885;SDS011;46736;41.654;-8.438;2023-10-09T00:32:07;0.30;;;0.30;;
60885;SDS011;46736;41.654;-8.438;2023-10-09T00:53:47;0.10;;;0.10;;
60885;SDS011;46736;41.654;-8.438;2023-10-09T00:55:51;0.20;;;0.20;;
60885;SDS011;46736;41.654;-8.438;2023-10-09T00:57:56;0.30;;;0.30;;
60885;SDS011;46736;41.654;-8.438;2023-10-09T01:14:23;0.10;;;0.10;;
60885;SDS011;46736;41.654;-8.438;2023-10-09T01:16:24;0.25;;;0.25;;
60885;SDS011;46736;41.654;-8.438;2023-10-09T01:18:26;0.20;;;0.20;;
60885;SDS011;46736;41.654;-8.438;2023-10-09T01:20:36;0.20;;;0.20;;
60885;SDS011;46736;41.654;-8.438;2023-10-09T01:22:42;0.20;;;0.20;;
60885;SDS011;46736;41.654;-8.438;2023-10-09T01:24:44;0.30;;;0.30;;
60885;SDS011;46736;41.654;-8.438;2023-10-09T01:26:45;0.30;;;0.30;;
60885;SDS011;46736;41.654;-8.438;2023-10-09T01:28:46;0.35;;;0.35;;
60885;SDS011;46736;41.654;-8.438;2023-10-09T01:30:49;0.40;;;0.40;;
60885;SDS011;46736;41.654;-8.438;2023-10-09T01:32:51;0.30;;;0.30;;
60885;SDS011;46736;41.654;-8.438;2023-10-09T01:34:52;0.40;;;0.40;;
60885;SDS011;46736;41.654;-8.438;2023-10-09T01:36:54;0.30;;;0.30;;
60885;SDS011;46736;41.654;-8.438;2023-10-09T01:38:55;0.30;;;0.30;;
60885;SDS011;46736;41.654;-8.438;2023-10-09T01:40:56;0.32;;;0.32;;
60885;SDS011;46736;41.654;-8.438;2023-10-09T01:43:04;0.40;;;0.40;;
60885;SDS011;46736;41.654;-8.438;2023-10-09T01:45:05;0.20;;;0.20;;
60885;SDS011;46736;41.654;-8.438;2023-10-09T01:49:21;0.10;;;0.10;;
60885;SDS011;46736;41.654;-8.438;2023-10-09T01:51:29;0.20;;;0.20;;
60885;SDS011;46736;41.654;-8.438;2023-10-09T01:53:34;0.20;;;0.20;;
60885;SDS011;46736;41.654;-8.438;2023-10-09T01:55:38;0.20;;;0.20;;
60885;SDS011;46736;41.654;-8.438;2023-10-09T01:57:40;0.20;;;0.20;;
60885;SDS011;46736;41.654;-8.438;2023-10-09T01:59:45;0.17;;;0.17;;
60885;SDS011;46736;41.654;-8.438;2023-10-09T02:01:47;0.28;;;0.28;;
60885;SDS011;46736;41.654;-8.438;2023-10-09T02:03:48;0.20;;;0.20;;
60885;SDS011;46736;41.654;-8.438;2023-10-09T02:05:52;0.20;;;0.20;;
60885;SDS011;46736;41.654;-8.438;2023-10-09T02:08:00;0.30;;;0.30;;
60885;SDS011;46736;41.654;-8.438;2023-10-09T02:10:05;0.20;;;0.20;;
60885;SDS011;46736;41.654;-8.438;2023-10-09T02:12:11;0.10;;;0.10;;
60885;SDS011;46736;41.654;-8.438;2023-10-09T02:14:12;0.20;;;0.20;;
60885;SDS011;46736;41.654;-8.438;2023-10-09T02:16:19;0.10;;;0.10;;
60885;SDS011;46736;41.654;-8.438;2023-10-09T02:18:29;0.13;;;0.13;;
60885;SDS011;46736;41.654;-8.438;2023-10-09T02:20:40;0.30;;;0.30;;
60885;SDS011;46736;41.654;-8.438;2023-10-09T02:22:40;0.20;;;0.20;;
60885;SDS011;46736;41.654;-8.438;2023-10-09T02:24:41;0.30;;;0.30;;
60885;SDS011;46736;41.654;-8.438;2023-10-09T02:26:49;0.20;;;0.20;;
60885;SDS011;46736;41.654;-8.438;2023-10-09T02:28:52;0.13;;;0.13;;
60885;SDS011;46736;41.654;-8.438;2023-10-09T02:31:12;0.30;;;0.30;;
60885;SDS011;46736;41.654;-8.438;2023-10-09T02:33:13;0.20;;;0.20;;
60885;SDS011;46736;41.654;-8.438;2023-10-09T02:35:14;0.20;;;0.20;;
60885;SDS011;46736;41.654;-8.438;2023-10-09T02:37:38;0.20;;;0.20;;
60885;SDS011;46736;41.654;-8.438;2023-10-09T02:39:39;0.20;;;0.20;;
60885;SDS011;46736;41.654;-8.438;2023-10-09T02:41:49;0.30;;;0.30;;
60885;SDS011;46736;41.654;-8.438;2023-10-09T02:43:50;0.20;;;0.20;;
60885;SDS011;46736;41.654;-8.438;2023-10-09T02:45:51;0.17;;;0.17;;
60885;SDS011;46736;41.654;-8.438;2023-10-09T02:47:51;0.20;;;0.20;;
60885;SDS011;46736;41.654;-8.438;2023-10-09T02:49:55;0.20;;;0.20;;
60885;SDS011;46736;41.654;-8.438;2023-10-09T02:52:01;0.30;;;0.30;;
60885;SDS011;46736;41.654;-8.438;2023-10-09T02:54:07;0.20;;;0.20;;
60885;SDS011;46736;41.654;-8.438;2023-10-09T02:56:18;0.10;;;0.10;;
60885;SDS011;46736;41.654;-8.438;2023-10-09T02:58:24;0.30;;;0.30;;
60885;SDS011;46736;41.654;-8.438;2023-10-09T03:00:25;0.40;;;0.40;;
60885;SDS011;46736;41.654;-8.438;2023-10-09T03:02:31;0.25;;;0.25;;
60885;SDS011;46736;41.654;-8.438;2023-10-09T03:04:32;0.30;;;0.30;;
60885;SDS011;46736;41.654;-8.438;2023-10-09T03:06:33;0.30;;;0.30;;
60885;SDS011;46736;41.654;-8.438;2023-10-09T03:10:38;0.10;;;0.10;;
60885;SDS011;46736;41.654;-8.438;2023-10-09T03:12:42;0.30;;;0.30;;
60885;SDS011;46736;41.654;-8.438;2023-10-09T03:14:44;0.30;;;0.30;;
60885;SDS011;46736;41.654;-8.438;2023-10-09T03:16:46;0.20;;;0.20;;
60885;SDS011;46736;41.654;-8.438;2023-10-09T03:18:52;0.30;;;0.30;;
60885;SDS011;46736;41.654;-8.438;2023-10-09T03:20:53;0.20;;;0.20;;
60885;SDS011;46736;41.654;-8.438;2023-10-09T03:22:53;0.40;;;0.40;;
60885;SDS011;46736;41.654;-8.438;2023-10-09T03:24:54;0.20;;;0.20;;
60885;SDS011;46736;41.654;-8.438;2023-10-09T03:26:55;0.30;;;0.30;;
60885;SDS011;46736;41.654;-8.438;2023-10-09T03:28:56;0.20;;;0.20;;
60885;SDS011;46736;41.654;-8.438;2023-10-09T03:31:01;0.30;;;0.30;;
60885;SDS011;46736;41.654;-8.438;2023-10-09T03:33:03;0.20;;;0.20;;
60885;SDS011;46736;41.654;-8.438;2023-10-09T03:35:04;0.20;;;0.20;;
60885;SDS011;46736;41.654;-8.438;2023-10-09T03:37:11;0.30;;;0.30;;
60885;SDS011;46736;41.654;-8.438;2023-10-09T03:39:23;0.20;;;0.20;;
60885;SDS011;46736;41.654;-8.438;2023-10-09T03:41:39;0.30;;;0.30;;
60885;SDS011;46736;41.654;-8.438;2023-10-09T03:43:42;0.20;;;0.20;;
60885;SDS011;46736;41.654;-8.438;2023-10-09T03:45:42;0.30;;;0.30;;
60885;SDS011;46736;41.654;-8.438;2023-10-09T03:47:54;0.30;;;0.30;;
60885;SDS011;46736;41.654;-8.438;2023-10-09T03:50:03;0.30;;;0.30;;
60885;SDS011;46736;41.654;-8.438;2023-10-09T03:52:21;0.20;;;0.20;;
60885;SDS011;46736;41.654;-8.438;2023-10-09T03:54:25;0.20;;;0.20;;
60885;SDS011;46736;41.654;-8.438;2023-10-09T03:56:30;0.20;;;0.20;;
60885;SDS011;46736;41.654;-8.438;2023-10-09T03:58:33;0.28;;;0.28;;
60885;SDS011;46736;41.654;-8.438;2023-10-09T04:00:34;0.20;;;0.20;;
60885;SDS011;46736;41.654;-8.438;2023-10-09T04:02:45;0.30;;;0.30;;
60885;SDS011;46736;41.654;-8.438;2023-10-09T04:04:45;0.30;;;0.30;;
60885;SDS011;46736;41.654;-8.438;2023-10-09T04:06:48;0.25;;;0.25;;
60885;SDS011;46736;41.654;-8.438;2023-10-09T04:08:48;0.30;;;0.30;;
60885;SDS011;46736;41.654;-8.438;2023-10-09T04:10:51;0.20;;;0.20;;
60885;SDS011;46736;41.654;-8.438;2023-10-09T04:12:52;0.20;;;0.20;;
60885;SDS011;46736;41.654;-8.438;2023-10-09T04:14:53;0.10;;;0.10;;
60885;SDS011;46736;41.654;-8.438;2023-10-09T04:16:55;0.30;;;0.30;;
60885;SDS011;46736;41.654;-8.438;2023-10-09T04:19:04;0.20;;;0.20;;
60885;SDS011;46736;41.654;-8.438;2023-10-09T04:23:45;0.20;;;0.20;;
60885;SDS011;46736;41.654;-8.438;2023-10-09T04:26:03;0.25;;;0.25;;
60885;SDS011;46736;41.654;-8.438;2023-10-09T04:28:14;0.30;;;0.30;;
60885;SDS011;46736;41.654;-8.438;2023-10-09T04:30:18;0.20;;;0.20;;
60885;SDS011;46736;41.654;-8.438;2023-10-09T04:32:18;0.30;;;0.30;;
60885;SDS011;46736;41.654;-8.438;2023-10-09T04:34:19;0.20;;;0.20;;
60885;SDS011;46736;41.654;-8.438;2023-10-09T04:36:22;0.20;;;0.20;;
60885;SDS011;46736;41.654;-8.438;2023-10-09T04:38:23;0.20;;;0.20;;
60885;SDS011;46736;41.654;-8.438;2023-10-09T04:40:24;0.30;;;0.30;;
60885;SDS011;46736;41.654;-8.438;2023-10-09T04:42:40;0.30;;;0.30;;
60885;SDS011;46736;41.654;-8.438;2023-10-09T04:44:58;0.17;;;0.17;;
60885;SDS011;46736;41.654;-8.438;2023-10-09T04:47:18;0.30;;;0.30;;
60885;SDS011;46736;41.654;-8.438;2023-10-09T04:49:19;0.20;;;0.20;;
60885;SDS011;46736;41.654;-8.438;2023-10-09T04:51:28;0.20;;;0.20;;
60885;SDS011;46736;41.654;-8.438;2023-10-09T04:53:36;0.20;;;0.20;;
60885;SDS011;46736;41.654;-8.438;2023-10-09T04:55:44;0.25;;;0.25;;
60885;SDS011;46736;41.654;-8.438;2023-10-09T04:57:54;0.20;;;0.20;;
60885;SDS011;46736;41.654;-8.438;2023-10-09T05:00:09;0.32;;;0.32;;
60885;SDS011;46736;41.654;-8.438;2023-10-09T05:02:25;0.20;;;0.20;;
60885;SDS011;46736;41.654;-8.438;2023-10-09T05:04:36;0.20;;;0.20;;
60885;SDS011;46736;41.654;-8.438;2023-10-09T05:06:37;0.30;;;0.30;;
60885;SDS011;46736;41.654;-8.438;2023-10-09T05:08:55;0.30;;;0.30;;
60885;SDS011;46736;41.654;-8.438;2023-10-09T05:10:56;0.30;;;0.30;;
60885;SDS011;46736;41.654;-8.438;2023-10-09T05:12:58;0.20;;;0.20;;
60885;SDS011;46736;41.654;-8.438;2023-10-09T05:14:59;0.40;;;0.40;;
60885;SDS011;46736;41.654;-8.438;2023-10-09T05:19:16;0.35;;;0.35;;
60885;SDS011;46736;41.654;-8.438;2023-10-09T05:21:35;0.20;;;0.20;;
60885;SDS011;46736;41.654;-8.438;2023-10-09T05:23:37;0.20;;;0.20;;
60885;SDS011;46736;41.654;-8.438;2023-10-09T05:25:44;0.20;;;0.20;;
60885;SDS011;46736;41.654;-8.438;2023-10-09T05:30:20;0.25;;;0.25;;
60885;SDS011;46736;41.654;-8.438;2023-10-09T05:33:00;0.22;;;0.22;;
60885;SDS011;46736;41.654;-8.438;2023-10-09T05:35:33;0.35;;;0.35;;
60885;SDS011;46736;41.654;-8.438;2023-10-09T05:37:41;0.30;;;0.30;;
60885;SDS011;46736;41.654;-8.438;2023-10-09T05:39:46;0.30;;;0.30;;
60885;SDS011;46736;41.654;-8.438;2023-10-09T05:44:09;0.20;;;0.20;;
60885;SDS011;46736;41.654;-8.438;2023-10-09T05:46:50;0.40;;;0.40;;
60885;SDS011;46736;41.654;-8.438;2023-10-09T05:49:11;0.20;;;0.20;;
60885;SDS011;46736;41.654;-8.438;2023-10-09T05:51:20;0.30;;;0.30;;
60885;SDS011;46736;41.654;-8.438;2023-10-09T05:55:52;0.30;;;0.30;;
60885;SDS011;46736;41.654;-8.438;2023-10-09T05:58:08;0.30;;;0.30;;
60885;SDS011;46736;41.654;-8.438;2023-10-09T06:02:39;0.25;;;0.25;;
60885;SDS011;46736;41.654;-8.438;2023-10-09T06:04:55;0.30;;;0.30;;
60885;SDS011;46736;41.654;-8.438;2023-10-09T06:07:00;0.20;;;0.20;;
60885;SDS011;46736;41.654;-8.438;2023-10-09T06:09:12;0.40;;;0.40;;
60885;SDS011;46736;41.654;-8.438;2023-10-09T06:11:14;0.20;;;0.20;;
60885;SDS011;46736;41.654;-8.438;2023-10-09T06:13:30;0.30;;;0.30;;
60885;SDS011;46736;41.654;-8.438;2023-10-09T06:15:38;0.30;;;0.30;;
60885;SDS011;46736;41.654;-8.438;2023-10-09T06:17:54;0.20;;;0.20;;
60885;SDS011;46736;41.654;-8.438;2023-10-09T06:20:00;0.30;;;0.30;;
60885;SDS011;46736;41.654;-8.438;2023-10-09T06:22:20;0.25;;;0.25;;
60885;SDS011;46736;41.654;-8.438;2023-10-09T06:26:43;0.20;;;0.20;;
60885;SDS011;46736;41.654;-8.438;2023-10-09T06:29:00;0.38;;;0.38;;
60885;SDS011;46736;41.654;-8.438;2023-10-09T06:31:16;0.30;;;0.30;;
60885;SDS011;46736;41.654;-8.438;2023-10-09T06:33:31;0.30;;;0.30;;
60885;SDS011;46736;41.654;-8.438;2023-10-09T06:35:52;0.30;;;0.30;;
60885;SDS011;46736;41.654;-8.438;2023-10-09T06:37:54;0.38;;;0.38;;
60885;SDS011;46736;41.654;-8.438;2023-10-09T06:40:09;0.30;;;0.30;;
60885;SDS011;46736;41.654;-8.438;2023-10-09T06:42:27;0.20;;;0.20;;
60885;SDS011;46736;41.654;-8.438;2023-10-09T06:44:48;0.30;;;0.30;;
60885;SDS011;46736;41.654;-8.438;2023-10-09T06:46:53;0.38;;;0.38;;
60885;SDS011;46736;41.654;-8.438;2023-10-09T06:48:58;0.20;;;0.20;;
60885;SDS011;46736;41.654;-8.438;2023-10-09T06:51:03;0.47;;;0.47;;
60885;SDS011;46736;41.654;-8.438;2023-10-09T06:53:08;0.40;;;0.40;;
60885;SDS011;46736;41.654;-8.438;2023-10-09T06:55:09;0.45;;;0.45;;
60885;SDS011;46736;41.654;-8.438;2023-10-09T06:57:19;0.30;;;0.30;;
60885;SDS011;46736;41.654;-8.438;2023-10-09T06:59:40;0.22;;;0.22;;
60885;SDS011;46736;41.654;-8.438;2023-10-09T07:01:44;0.30;;;0.30;;
60885;SDS011;46736;41.654;-8.438;2023-10-09T07:03:50;0.30;;;0.30;;
60885;SDS011;46736;41.654;-8.438;2023-10-09T07:06:02;0.20;;;0.20;;
60885;SDS011;46736;41.654;-8.438;2023-10-09T07:08:06;0.30;;;0.30;;
60885;SDS011;46736;41.654;-8.438;2023-10-09T07:10:37;0.40;;;0.40;;
60885;SDS011;46736;41.654;-8.438;2023-10-09T07:12:43;0.32;;;0.32;;
60885;SDS011;46736;41.654;-8.438;2023-10-09T07:58:33;0.20;;;0.20;;
60885;SDS011;46736;41.654;-8.438;2023-10-09T10:34:52;0.00;;;0.00;;
60885;SDS011;46736;41.654;-8.438;2023-10-09T14:20:37;0.05;;;0.05;;
60885;SDS011;46736;41.654;-8.438;2023-10-09T14:22:38;0.10;;;0.10;;
60885;SDS011;46736;41.654;-8.438;2023-10-09T14:25:07;0.10;;;0.10;;
60885;SDS011;46736;41.654;-8.438;2023-10-09T14:27:24;0.10;;;0.10;;
60885;SDS011;46736;41.654;-8.438;2023-10-09T14:29:27;0.10;;;0.10;;
60885;SDS011;46736;41.654;-8.438;2023-10-09T14:31:43;0.03;;;0.03;;
60885;SDS011;46736;41.654;-8.438;2023-10-09T14:34:46;0.00;;;0.00;;
60885;SDS011;46736;41.654;-8.438;2023-10-09T14:39:53;0.10;;;0.10;;
60885;SDS011;46736;41.654;-8.438;2023-10-09T14:41:59;0.10;;;0.10;;
60885;SDS011;46736;41.654;-8.438;2023-10-09T14:43:59;0.10;;;0.10;;
60885;SDS011;46736;41.654;-8.438;2023-10-09T14:46:01;0.10;;;0.10;;
60885;SDS011;46736;41.654;-8.438;2023-10-09T14:48:01;0.00;;;0.00;;
60885;SDS011;46736;41.654;-8.438;2023-10-09T15:22:13;0.10;;;0.10;;
60885;SDS011;46736;41.654;-8.438;2023-10-09T15:35:58;0.00;;;0.00;;
60885;SDS011;46736;41.654;-8.438;2023-10-09T15:38:01;0.00;;;0.00;;
60885;SDS011;46736;41.654;-8.438;2023-10-09T15:40:05;0.00;;;0.00;;
60885;SDS011;46736;41.654;-8.438;2023-10-09T15:42:23;0.00;;;0.00;;
60885;SDS011;46736;41.654;-8.438;2023-10-09T15:44:25;0.00;;;0.00;;
60885;SDS011;46736;41.654;-8.438;2023-10-09T15:46:30;0.00;;;0.00;;
60885;SDS011;46736;41.654;-8.438;2023-10-09T15:48:37;0.10;;;0.10;;
60885;SDS011;46736;41.654;-8.438;2023-10-09T15:52:58;0.10;;;0.10;;
60885;SDS011;46736;41.654;-8.438;2023-10-09T15:55:00;0.10;;;0.10;;
60885;SDS011;46736;41.654;-8.438;2023-10-09T15:57:01;0.00;;;0.00;;
60885;SDS011;46736;41.654;-8.438;2023-10-09T15:59:01;0.10;;;0.10;;
60885;SDS011;46736;41.654;-8.438;2023-10-09T16:01:04;0.10;;;0.10;;
60885;SDS011;46736;41.654;-8.438;2023-10-09T16:03:30;0.10;;;0.10;;
60885;SDS011;46736;41.654;-8.438;2023-10-09T16:05:36;0.10;;;0.10;;
60885;SDS011;46736;41.654;-8.438;2023-10-09T16:07:40;0.10;;;0.10;;
60885;SDS011;46736;41.654;-8.438;2023-10-09T16:09:42;0.03;;;0.03;;
60885;SDS011;46736;41.654;-8.438;2023-10-09T16:11:42;0.00;;;0.00;;
60885;SDS011;46736;41.654;-8.438;2023-10-09T16:13:44;0.10;;;0.10;;
60885;SDS011;46736;41.654;-8.438;2023-10-09T16:15:49;0.10;;;0.10;;
60885;SDS011;46736;41.654;-8.438;2023-10-09T16:17:51;0.10;;;0.10;;
60885;SDS011;46736;41.654;-8.438;2023-10-09T16:19:59;0.05;;;0.05;;
60885;SDS011;46736;41.654;-8.438;2023-10-09T16:22:00;0.10;;;0.10;;
60885;SDS011;46736;41.654;-8.438;2023-10-09T16:24:04;0.00;;;0.00;;
60885;SDS011;46736;41.654;-8.438;2023-10-09T16:26:06;0.10;;;0.10;;
60885;SDS011;46736;41.654;-8.438;2023-10-09T16:28:07;0.00;;;0.00;;
60885;SDS011;46736;41.654;-8.438;2023-10-09T16:30:09;0.10;;;0.10;;
60885;SDS011;46736;41.654;-8.438;2023-10-09T16:34:37;0.10;;;0.10;;
60885;SDS011;46736;41.654;-8.438;2023-10-09T16:36:40;0.00;;;0.00;;
60885;SDS011;46736;41.654;-8.438;2023-10-09T16:38:40;0.10;;;0.10;;
60885;SDS011;46736;41.654;-8.438;2023-10-09T16:40:42;0.10;;;0.10;;
60885;SDS011;46736;41.654;-8.438;2023-10-09T16:42:50;0.10;;;0.10;;
60885;SDS011;46736;41.654;-8.438;2023-10-09T16:44:54;0.10;;;0.10;;
60885;SDS011;46736;41.654;-8.438;2023-10-09T16:47:00;0.00;;;0.00;;
60885;SDS011;46736;41.654;-8.438;2023-10-09T16:49:01;0.10;;;0.10;;
60885;SDS011;46736;41.654;-8.438;2023-10-09T16:51:06;0.10;;;0.10;;
60885;SDS011;46736;41.654;-8.438;2023-10-09T16:53:27;0.10;;;0.10;;
60885;SDS011;46736;41.654;-8.438;2023-10-09T16:55:28;0.10;;;0.10;;
60885;SDS011;46736;41.654;-8.438;2023-10-09T16:57:30;0.10;;;0.10;;
60885;SDS011;46736;41.654;-8.438;2023-10-09T16:59:31;0.00;;;0.00;;
60885;SDS011;46736;41.654;-8.438;2023-10-09T17:01:34;0.10;;;0.10;;
60885;SDS011;46736;41.654;-8.438;2023-10-09T17:03:37;0.00;;;0.00;;
60885;SDS011;46736;41.654;-8.438;2023-10-09T17:05:42;0.00;;;0.00;;
60885;SDS011;46736;41.654;-8.438;2023-10-09T17:08:01;0.10;;;0.10;;
60885;SDS011;46736;41.654;-8.438;2023-10-09T17:10:01;0.10;;;0.10;;
60885;SDS011;46736;41.654;-8.438;2023-10-09T17:12:28;0.10;;;0.10;;
60885;SDS011;46736;41.654;-8.438;2023-10-09T17:14:29;0.10;;;0.10;;
60885;SDS011;46736;41.654;-8.438;2023-10-09T17:16:36;0.10;;;0.10;;
60885;SDS011;46736;41.654;-8.438;2023-10-09T17:20:54;0.10;;;0.10;;
60885;SDS011;46736;41.654;-8.438;2023-10-09T17:22:58;0.00;;;0.00;;
60885;SDS011;46736;41.654;-8.438;2023-10-09T17:37:01;0.10;;;0.10;;
60885;SDS011;46736;41.654;-8.438;2023-10-09T17:39:02;0.10;;;0.10;;
60885;SDS011;46736;41.654;-8.438;2023-10-09T17:41:06;0.10;;;0.10;;
60885;SDS011;46736;41.654;-8.438;2023-10-09T17:43:09;0.10;;;0.10;;
60885;SDS011;46736;41.654;-8.438;2023-10-09T17:45:09;0.10;;;0.10;;
60885;SDS011;46736;41.654;-8.438;2023-10-09T17:47:10;0.10;;;0.10;;
60885;SDS011;46736;41.654;-8.438;2023-10-09T17:49:12;0.10;;;0.10;;
60885;SDS011;46736;41.654;-8.438;2023-10-09T17:51:13;0.10;;;0.10;;
60885;SDS011;46736;41.654;-8.438;2023-10-09T17:53:15;0.10;;;0.10;;
60885;SDS011;46736;41.654;-8.438;2023-10-09T17:55:21;0.10;;;0.10;;
60885;SDS011;46736;41.654;-8.438;2023-10-09T18:02:11;0.10;;;0.10;;
60885;SDS011;46736;41.654;-8.438;2023-10-09T18:04:12;0.10;;;0.10;;
60885;SDS011;46736;41.654;-8.438;2023-10-09T18:06:15;0.20;;;0.20;;
60885;SDS011;46736;41.654;-8.438;2023-10-09T18:08:17;0.10;;;0.10;;
60885;SDS011;46736;41.654;-8.438;2023-10-09T18:10:18;0.10;;;0.10;;
60885;SDS011;46736;41.654;-8.438;2023-10-09T18:12:20;0.10;;;0.10;;
60885;SDS011;46736;41.654;-8.438;2023-10-09T18:14:22;0.10;;;0.10;;
60885;SDS011;46736;41.654;-8.438;2023-10-09T18:16:26;0.20;;;0.20;;
60885;SDS011;46736;41.654;-8.438;2023-10-09T18:18:27;0.20;;;0.20;;
60885;SDS011;46736;41.654;-8.438;2023-10-09T18:20:29;0.20;;;0.20;;
60885;SDS011;46736;41.654;-8.438;2023-10-09T18:22:30;0.20;;;0.20;;
60885;SDS011;46736;41.654;-8.438;2023-10-09T18:24:31;0.20;;;0.20;;
60885;SDS011;46736;41.654;-8.438;2023-10-09T18:26:40;0.20;;;0.20;;
60885;SDS011;46736;41.654;-8.438;2023-10-09T18:28:41;0.20;;;0.20;;
60885;SDS011;46736;41.654;-8.438;2023-10-09T18:30:45;0.20;;;0.20;;
60885;SDS011;46736;41.654;-8.438;2023-10-09T18:32:49;0.20;;;0.20;;
60885;SDS011;46736;41.654;-8.438;2023-10-09T18:34:50;0.20;;;0.20;;
60885;SDS011;46736;41.654;-8.438;2023-10-09T18:36:52;0.20;;;0.20;;
60885;SDS011;46736;41.654;-8.438;2023-10-09T18:38:53;0.10;;;0.10;;
60885;SDS011;46736;41.654;-8.438;2023-10-09T18:40:53;0.20;;;0.20;;
60885;SDS011;46736;41.654;-8.438;2023-10-09T18:42:57;0.20;;;0.20;;
60885;SDS011;46736;41.654;-8.438;2023-10-09T19:18:44;0.20;;;0.20;;
60885;SDS011;46736;41.654;-8.438;2023-10-09T19:20:45;0.20;;;0.20;;
60885;SDS011;46736;41.654;-8.438;2023-10-09T19:22:47;0.20;;;0.20;;
60885;SDS011;46736;41.654;-8.438;2023-10-09T19:24:49;0.20;;;0.20;;
60885;SDS011;46736;41.654;-8.438;2023-10-09T19:26:52;0.20;;;0.20;;
60885;SDS011;46736;41.654;-8.438;2023-10-09T19:28:53;0.20;;;0.20;;
60885;SDS011;46736;41.654;-8.438;2023-10-09T19:31:02;0.20;;;0.20;;
60885;SDS011;46736;41.654;-8.438;2023-10-09T19:33:03;0.20;;;0.20;;
60885;SDS011;46736;41.654;-8.438;2023-10-09T19:35:06;0.20;;;0.20;;
60885;SDS011;46736;41.654;-8.438;2023-10-09T19:37:07;0.20;;;0.20;;
60885;SDS011;46736;41.654;-8.438;2023-10-09T19:39:08;0.20;;;0.20;;
60885;SDS011;46736;41.654;-8.438;2023-10-09T19:41:09;0.20;;;0.20;;
60885;SDS011;46736;41.654;-8.438;2023-10-09T19:43:11;0.20;;;0.20;;
60885;SDS011;46736;41.654;-8.438;2023-10-09T19:45:15;0.20;;;0.20;;
60885;SDS011;46736;41.654;-8.438;2023-10-09T19:47:19;0.20;;;0.20;;
60885;SDS011;46736;41.654;-8.438;2023-10-09T19:49:21;0.20;;;0.20;;
60885;SDS011;46736;41.654;-8.438;2023-10-09T19:55:57;0.10;;;0.10;;
60885;SDS011;46736;41.654;-8.438;2023-10-09T21:12:28;0.15;;;0.15;;
60885;SDS011;46736;41.654;-8.438;2023-10-09T21:14:29;0.20;;;0.20;;
60885;SDS011;46736;41.654;-8.438;2023-10-09T21:16:31;0.20;;;0.20;;
60885;SDS011;46736;41.654;-8.438;2023-10-09T21:18:32;0.20;;;0.20;;
60885;SDS011;46736;41.654;-8.438;2023-10-09T21:20:33;0.20;;;0.20;;
60885;SDS011;46736;41.654;-8.438;2023-10-09T21:22:33;0.20;;;0.20;;
60885;SDS011;46736;41.654;-8.438;2023-10-09T21:24:34;0.20;;;0.20;;
60885;SDS011;46736;41.654;-8.438;2023-10-09T21:26:35;0.20;;;0.20;;
60885;SDS011;46736;41.654;-8.438;2023-10-09T21:28:35;0.20;;;0.20;;
60885;SDS011;46736;41.654;-8.438;2023-10-09T21:30:37;0.20;;;0.20;;
60885;SDS011;46736;41.654;-8.438;2023-10-09T21:32:38;0.20;;;0.20;;
60885;SDS011;46736;41.654;-8.438;2023-10-09T21:34:40;0.20;;;0.20;;
60885;SDS011;46736;41.654;-8.438;2023-10-09T21:36:41;0.20;;;0.20;;
60885;SDS011;46736;41.654;-8.438;2023-10-09T21:38:42;0.20;;;0.20;;
60885;SDS011;46736;41.654;-8.438;2023-10-09T21:40:43;0.20;;;0.20;;
60885;SDS011;46736;41.654;-8.438;2023-10-09T21:42:48;0.20;;;0.20;;
60885;SDS011;46736;41.654;-8.438;2023-10-09T21:44:51;0.20;;;0.20;;
60885;SDS011;46736;41.654;-8.438;2023-10-09T21:46:52;0.20;;;0.20;;
60885;SDS011;46736;41.654;-8.438;2023-10-09T21:51:03;0.20;;;0.20;;
60885;SDS011;46736;41.654;-8.438;2023-10-09T21:53:08;0.20;;;0.20;;
60885;SDS011;46736;41.654;-8.438;2023-10-09T21:55:08;0.20;;;0.20;;
60885;SDS011;46736;41.654;-8.438;2023-10-09T21:57:09;0.20;;;0.20;;
60885;SDS011;46736;41.654;-8.438;2023-10-09T22:27:44;0.20;;;0.20;;
60885;SDS011;46736;41.654;-8.438;2023-10-09T22:29:51;0.20;;;0.20;;
60885;SDS011;46736;41.654;-8.438;2023-10-09T22:31:52;0.20;;;0.20;;
60885;SDS011;46736;41.654;-8.438;2023-10-09T22:33:54;0.20;;;0.20;;
60885;SDS011;46736;41.654;-8.438;2023-10-09T22:36:07;0.20;;;0.20;;
60885;SDS011;46736;41.654;-8.438;2023-10-09T23:28:48;0.10;;;0.10;;
60885;SDS011;46736;41.654;-8.438;2023-10-09T23:51:42;0.13;;;0.13;;
60885;SDS011;46736;41.654;-8.438;2023-10-09T23:53:49;0.20;;;0.20;;
60885;SDS011;46736;41.654;-8.438;2023-10-09T23:56:05;0.20;;;0.20;;
60885;SDS011;46736;41.654;-8.438;2023-10-09T23:58:12;0.17;;;0.17;;
